Time;durP1;ratioP1;P1;durP2;ratioP2;P2;SDS_P1;SDS_P2;PMS_P1;PMS_P2;Temp;Humidity;BMP_temperature;BMP_pressure;BME280_temperature;BME280_humidity;BME280_pressure;Samples;Min_cycle;Max_cycle;Signal;HPM_P1;HPM_P2
2023/03/21 00:01:37;;;;;;;1.40;1.30;;;;;;;;;;5013253;28;20431;-78
2023/03/21 00:04:03;;;;;;;2.97;1.35;;;;;;;;;;5014156;28;20435;-78
2023/03/21 00:06:29;;;;;;;2.63;1.20;;;;;;;;;;5028169;28;20115;-79
2023/03/21 00:08:55;;;;;;;1.38;1.27;;;;;;;;;;5006620;28;20034;-78
2023/03/21 00:11:21;;;;;;;1.10;0.90;;;;;;;;;;5009325;28;20037;-79
2023/03/21 00:13:47;;;;;;;1.98;1.20;;;;;;;;;;5021778;28;20030;-78
2023/03/21 00:16:15;;;;;;;1.65;1.15;;;;;;;;;;5026112;28;20044;-79
2023/03/21 00:18:46;;;;;;;1.30;1.20;;;;;;;;;;5011357;28;20033;-79
2023/03/21 00:21:14;;;;;;;2.03;1.58;;;;;;;;;;5016081;28;20084;-78
2023/03/21 00:23:41;;;;;;;1.83;1.13;;;;;;;;;;5012831;28;20041;-79
2023/03/21 00:26:08;;;;;;;1.63;1.25;;;;;;;;;;5010838;28;20108;-79
2023/03/21 00:28:35;;;;;;;1.67;1.10;;;;;;;;;;5010671;28;20035;-78
2023/03/21 00:31:01;;;;;;;1.60;1.13;;;;;;;;;;5015124;28;20430;-77
2023/03/21 00:33:27;;;;;;;1.83;1.30;;;;;;;;;;5013759;28;20538;-79
2023/03/21 00:35:53;;;;;;;1.20;0.90;;;;;;;;;;5010535;28;20034;-79
2023/03/21 00:38:20;;;;;;;0.80;0.80;;;;;;;;;;5013054;28;20121;-78
2023/03/21 00:40:46;;;;;;;2.05;1.20;;;;;;;;;;5011250;28;20037;-78
2023/03/21 00:43:16;;;;;;;0.95;0.90;;;;;;;;;;5007580;28;20112;-78
2023/03/21 00:45:45;;;;;;;1.27;1.02;;;;;;;;;;5008027;28;20026;-78
2023/03/21 00:48:12;;;;;;;1.83;1.17;;;;;;;;;;4991774;28;20097;-78
2023/03/21 00:50:38;;;;;;;1.40;1.08;;;;;;;;;;5020324;28;20029;-78
2023/03/21 00:53:05;;;;;;;1.65;1.10;;;;;;;;;;5007804;28;20033;-78
2023/03/21 00:55:31;;;;;;;1.10;1.00;;;;;;;;;;5007531;28;20113;-78
2023/03/21 00:57:57;;;;;;;1.92;1.10;;;;;;;;;;5014491;28;20160;-77
2023/03/21 01:00:23;;;;;;;1.00;0.90;;;;;;;;;;5009198;28;20045;-79
2023/03/21 01:02:55;;;;;;;1.40;1.02;;;;;;;;;;5013672;28;20072;-78
2023/03/21 01:08:11;;;;;;;1.35;1.00;;;;;;;;;;5015089;28;20036;-78
2023/03/21 01:10:41;;;;;;;2.33;1.02;;;;;;;;;;5006383;28;20021;-78
2023/03/21 01:13:07;;;;;;;1.17;1.00;;;;;;;;;;5009316;28;20062;-78
2023/03/21 01:15:34;;;;;;;1.35;1.15;;;;;;;;;;5007357;28;20117;-78
2023/03/21 01:18:00;;;;;;;1.25;0.95;;;;;;;;;;5005667;28;20121;-78
2023/03/21 01:20:26;;;;;;;1.08;1.08;;;;;;;;;;5016639;28;20083;-77
2023/03/21 01:22:52;;;;;;;1.02;1.00;;;;;;;;;;5007479;28;20034;-78
2023/03/21 01:25:18;;;;;;;1.27;1.15;;;;;;;;;;5008836;28;20038;-78
2023/03/21 01:27:44;;;;;;;1.00;0.90;;;;;;;;;;5006721;28;20400;-78
2023/03/21 01:30:11;;;;;;;1.17;0.93;;;;;;;;;;5001825;28;20053;-78
2023/03/21 01:32:36;;;;;;;2.28;1.27;;;;;;;;;;5010801;28;20034;-78
2023/03/21 01:35:03;;;;;;;3.53;1.15;;;;;;;;;;5013431;28;20439;-77
2023/03/21 01:37:29;;;;;;;1.70;1.20;;;;;;;;;;5011747;28;20072;-78
2023/03/21 01:39:55;;;;;;;1.25;1.05;;;;;;;;;;5010064;28;20289;-78
2023/03/21 01:42:21;;;;;;;2.50;1.10;;;;;;;;;;5009934;28;20041;-78
2023/03/21 01:44:54;;;;;;;1.98;1.20;;;;;;;;;;5007380;28;20552;-78
2023/03/21 01:47:20;;;;;;;1.48;1.20;;;;;;;;;;5004717;28;20037;-78
2023/03/21 01:49:49;;;;;;;2.03;1.30;;;;;;;;;;5005926;28;20029;-78
2023/03/21 01:52:17;;;;;;;1.30;1.00;;;;;;;;;;5006362;28;20489;-78
2023/03/21 01:54:44;;;;;;;4.15;1.40;;;;;;;;;;5007466;28;20034;-78
2023/03/21 01:57:19;;;;;;;1.38;1.10;;;;;;;;;;5012241;28;20030;-78
2023/03/21 01:59:49;;;;;;;1.52;1.25;;;;;;;;;;5004772;28;20140;-78
2023/03/21 02:02:23;;;;;;;2.15;1.60;;;;;;;;;;5003249;28;20117;-78
2023/03/21 02:04:56;;;;;;;1.13;0.98;;;;;;;;;;5008948;28;20109;-78
2023/03/21 02:07:36;;;;;;;1.30;1.10;;;;;;;;;;5013189;28;20025;-78
2023/03/21 02:10:04;;;;;;;1.80;1.02;;;;;;;;;;5002702;28;20034;-78
2023/03/21 02:12:30;;;;;;;1.50;1.23;;;;;;;;;;5003724;28;20036;-78
2023/03/21 02:14:57;;;;;;;1.90;1.30;;;;;;;;;;5006388;28;20586;-78
2023/03/21 02:17:40;;;;;;;2.13;1.52;;;;;;;;;;5007581;28;20030;-78
2023/03/21 02:20:24;;;;;;;1.13;1.02;;;;;;;;;;5004295;28;20034;-78
2023/03/21 02:22:56;;;;;;;1.15;1.05;;;;;;;;;;5010785;28;20038;-78
2023/03/21 02:25:34;;;;;;;1.70;1.27;;;;;;;;;;5002993;28;20428;-78
2023/03/21 02:28:06;;;;;;;2.50;1.33;;;;;;;;;;5010380;28;20448;-78
2023/03/21 02:30:32;;;;;;;1.77;1.20;;;;;;;;;;5003991;28;20049;-78
2023/03/21 02:33:01;;;;;;;1.63;1.13;;;;;;;;;;5005809;28;20485;-78
2023/03/21 02:35:48;;;;;;;1.65;1.10;;;;;;;;;;5011258;28;20036;-78
2023/03/21 02:38:17;;;;;;;1.63;1.33;;;;;;;;;;5007528;28;20021;-78
2023/03/21 02:40:43;;;;;;;1.10;1.00;;;;;;;;;;5007215;28;20056;-78
2023/03/21 02:43:34;;;;;;;2.17;1.40;;;;;;;;;;5009304;28;20456;-78
2023/03/21 02:46:08;;;;;;;1.42;1.27;;;;;;;;;;5005599;28;20030;-78
2023/03/21 02:48:37;;;;;;;1.85;1.13;;;;;;;;;;5017890;28;20099;-78
2023/03/21 02:51:04;;;;;;;2.25;1.55;;;;;;;;;;5016088;28;20108;-78
2023/03/21 02:53:33;;;;;;;1.80;1.70;;;;;;;;;;5006676;28;20033;-79
2023/03/21 02:56:00;;;;;;;3.28;1.33;;;;;;;;;;5005470;28;20034;-78
2023/03/21 02:58:27;;;;;;;2.63;1.83;;;;;;;;;;5009833;28;20029;-78
2023/03/21 03:00:55;;;;;;;1.60;1.50;;;;;;;;;;5016311;28;20048;-78
2023/03/21 03:03:21;;;;;;;1.73;1.10;;;;;;;;;;5004141;28;20026;-78
2023/03/21 03:05:49;;;;;;;2.22;1.60;;;;;;;;;;5002945;28;20053;-78
2023/03/21 03:08:20;;;;;;;1.92;1.33;;;;;;;;;;5015483;28;20057;-78
2023/03/21 03:11:05;;;;;;;1.42;1.33;;;;;;;;;;5020566;28;20075;-78
2023/03/21 03:13:50;;;;;;;1.95;1.48;;;;;;;;;;5004649;28;20113;-78
2023/03/21 03:16:42;;;;;;;2.10;1.50;;;;;;;;;;5006099;28;20030;-78
2023/03/21 03:19:10;;;;;;;1.55;1.40;;;;;;;;;;4985390;28;20042;-78
2023/03/21 03:21:41;;;;;;;1.25;1.15;;;;;;;;;;5010066;28;20026;-78
2023/03/21 03:24:26;;;;;;;1.40;1.30;;;;;;;;;;5008091;28;20072;-78
2023/03/21 03:26:56;;;;;;;3.60;1.30;;;;;;;;;;4996435;28;20512;-78
2023/03/21 03:29:23;;;;;;;4.40;1.50;;;;;;;;;;5009833;28;20396;-78
2023/03/21 03:31:53;;;;;;;2.15;1.55;;;;;;;;;;5018919;28;20037;-78
2023/03/21 03:34:20;;;;;;;2.28;1.40;;;;;;;;;;5005263;28;20520;-78
2023/03/21 03:36:50;;;;;;;1.80;1.38;;;;;;;;;;5006850;28;20033;-78
2023/03/21 03:39:17;;;;;;;2.75;1.60;;;;;;;;;;5006497;28;20388;-77
2023/03/21 03:41:50;;;;;;;4.07;1.30;;;;;;;;;;5006356;28;20036;-78
2023/03/21 03:44:16;;;;;;;1.90;1.50;;;;;;;;;;5003676;28;20045;-78
2023/03/21 03:46:51;;;;;;;3.25;1.45;;;;;;;;;;5007697;28;20156;-78
2023/03/21 03:49:20;;;;;;;2.08;1.30;;;;;;;;;;5009952;28;20021;-78
2023/03/21 03:51:52;;;;;;;1.80;1.55;;;;;;;;;;5017325;28;20481;-78
2023/03/21 03:54:28;;;;;;;2.33;1.38;;;;;;;;;;4999286;28;20018;-78
2023/03/21 03:56:55;;;;;;;2.22;1.45;;;;;;;;;;5005054;28;20231;-78
2023/03/21 03:59:20;;;;;;;2.47;1.70;;;;;;;;;;5008604;28;20440;-78
2023/03/21 04:01:47;;;;;;;2.47;2.25;;;;;;;;;;5007369;28;20034;-78
2023/03/21 04:04:15;;;;;;;2.97;1.58;;;;;;;;;;5006973;28;20492;-78
2023/03/21 04:06:41;;;;;;;1.90;1.40;;;;;;;;;;5002498;28;20057;-78
2023/03/21 04:09:07;;;;;;;4.30;1.40;;;;;;;;;;5007341;28;20480;-78
2023/03/21 04:11:33;;;;;;;3.08;1.50;;;;;;;;;;5010704;28;20026;-78
2023/03/21 04:13:59;;;;;;;2.33;1.48;;;;;;;;;;5005713;28;20048;-78
2023/03/21 04:16:25;;;;;;;1.60;1.38;;;;;;;;;;5014832;28;20037;-78
2023/03/21 04:18:51;;;;;;;2.20;1.50;;;;;;;;;;5019975;28;20048;-78
2023/03/21 04:21:17;;;;;;;2.15;1.40;;;;;;;;;;5018895;28;20029;-77
2023/03/21 04:23:43;;;;;;;2.67;1.50;;;;;;;;;;5015670;28;20033;-78
2023/03/21 04:26:09;;;;;;;2.33;1.77;;;;;;;;;;5007244;28;20037;-78
2023/03/21 04:28:35;;;;;;;2.00;1.60;;;;;;;;;;5008119;28;20032;-77
2023/03/21 04:31:01;;;;;;;2.45;1.40;;;;;;;;;;5011541;28;20034;-78
2023/03/21 04:33:27;;;;;;;2.65;1.60;;;;;;;;;;5007258;28;20026;-76
2023/03/21 04:35:57;;;;;;;3.50;1.67;;;;;;;;;;5004165;28;20594;-76
2023/03/21 04:38:25;;;;;;;2.45;1.40;;;;;;;;;;5016008;28;20029;-77
2023/03/21 04:40:51;;;;;;;1.75;1.35;;;;;;;;;;5007372;28;20036;-76
2023/03/21 04:43:17;;;;;;;1.58;1.30;;;;;;;;;;5007131;28;20046;-76
2023/03/21 04:45:43;;;;;;;2.40;1.80;;;;;;;;;;5018519;28;20414;-76
2023/03/21 04:48:09;;;;;;;2.08;1.80;;;;;;;;;;5007933;28;20077;-76
2023/03/21 04:50:35;;;;;;;2.03;1.45;;;;;;;;;;5007383;28;20026;-76
2023/03/21 04:53:01;;;;;;;2.38;1.60;;;;;;;;;;5009556;28;20037;-77
2023/03/21 04:55:28;;;;;;;2.35;1.50;;;;;;;;;;5010289;28;20032;-77
2023/03/21 04:57:54;;;;;;;1.58;1.48;;;;;;;;;;5014462;28;20044;-77
2023/03/21 05:00:20;;;;;;;1.95;1.27;;;;;;;;;;5018419;28;20041;-76
2023/03/21 05:02:47;;;;;;;2.00;1.58;;;;;;;;;;5020177;28;20107;-76
2023/03/21 05:05:13;;;;;;;3.42;1.40;;;;;;;;;;5009904;28;20039;-76
2023/03/21 05:07:40;;;;;;;1.38;1.25;;;;;;;;;;5016028;28;20022;-76
2023/03/21 05:10:06;;;;;;;2.65;1.52;;;;;;;;;;5008620;28;21030;-76
2023/03/21 05:12:32;;;;;;;1.65;1.25;;;;;;;;;;5006543;28;20113;-76
2023/03/21 05:14:58;;;;;;;1.95;1.40;;;;;;;;;;5015583;28;20477;-76
2023/03/21 05:17:27;;;;;;;1.25;1.15;;;;;;;;;;5008794;28;20033;-76
2023/03/21 05:19:55;;;;;;;1.83;1.42;;;;;;;;;;5012228;28;20635;-77
2023/03/21 05:22:23;;;;;;;3.05;1.10;;;;;;;;;;5005568;28;20085;-77
2023/03/21 05:24:49;;;;;;;1.65;1.20;;;;;;;;;;5007129;28;20026;-77
2023/03/21 05:27:44;;;;;;;1.40;1.30;;;;;;;;;;5006180;28;20423;-77
2023/03/21 05:30:07;;;;;;;2.88;1.38;;;;;;;;;;5009172;28;20030;-77
2023/03/21 05:32:33;;;;;;;3.03;1.67;;;;;;;;;;5009639;28;20030;-78
2023/03/21 05:34:59;;;;;;;1.90;1.50;;;;;;;;;;5005383;28;20053;-77
2023/03/21 05:37:25;;;;;;;1.30;1.00;;;;;;;;;;5015186;28;20175;-79
2023/03/21 05:39:51;;;;;;;1.95;1.23;;;;;;;;;;5006440;28;20041;-79
2023/03/21 05:42:18;;;;;;;3.15;2.10;;;;;;;;;;5011011;28;20120;-77
2023/03/21 05:44:44;;;;;;;1.42;1.33;;;;;;;;;;5016836;28;20192;-76
2023/03/21 05:47:11;;;;;;;1.98;1.50;;;;;;;;;;5013848;28;20053;-79
2023/03/21 05:49:37;;;;;;;1.95;1.50;;;;;;;;;;5006119;28;20022;-79
2023/03/21 05:52:03;;;;;;;3.28;1.67;;;;;;;;;;5007201;28;20034;-78
2023/03/21 05:54:29;;;;;;;2.60;1.65;;;;;;;;;;5008332;28;20034;-79
2023/03/21 05:56:55;;;;;;;1.30;1.20;;;;;;;;;;5006978;28;20041;-79
2023/03/21 05:59:21;;;;;;;2.60;1.50;;;;;;;;;;4999621;28;20030;-79
2023/03/21 06:01:47;;;;;;;2.47;1.33;;;;;;;;;;5007498;28;20025;-79
2023/03/21 06:04:13;;;;;;;2.75;1.40;;;;;;;;;;5015299;28;20059;-78
2023/03/21 06:06:40;;;;;;;1.42;1.30;;;;;;;;;;5028900;28;20026;-78
2023/03/21 06:09:06;;;;;;;1.98;1.05;;;;;;;;;;5017921;28;20036;-77
2023/03/21 06:11:33;;;;;;;1.90;1.65;;;;;;;;;;5009090;28;20042;-78
2023/03/21 06:13:59;;;;;;;2.10;1.33;;;;;;;;;;5018076;28;20025;-78
2023/03/21 06:16:27;;;;;;;2.03;1.25;;;;;;;;;;5028736;28;20025;-78
2023/03/21 06:18:53;;;;;;;1.88;1.20;;;;;;;;;;5007461;28;20040;-77
2023/03/21 06:21:19;;;;;;;2.05;1.80;;;;;;;;;;5022693;28;20037;-77
2023/03/21 06:23:45;;;;;;;2.08;1.63;;;;;;;;;;5028783;28;20063;-78
2023/03/21 06:26:12;;;;;;;3.88;1.50;;;;;;;;;;5028279;28;20029;-77
2023/03/21 06:28:38;;;;;;;2.03;1.73;;;;;;;;;;5028683;28;20021;-77
2023/03/21 06:31:04;;;;;;;2.17;1.45;;;;;;;;;;5016469;28;20100;-77
2023/03/21 06:33:30;;;;;;;2.47;1.50;;;;;;;;;;5027917;28;20028;-77
2023/03/21 06:35:57;;;;;;;2.10;1.30;;;;;;;;;;5028230;28;20017;-78
2023/03/21 06:38:24;;;;;;;0.80;0.75;;;;;;;;;;5024237;28;20022;-77
2023/03/21 06:40:50;;;;;;;1.80;1.30;;;;;;;;;;5011087;28;20034;-77
2023/03/21 06:43:16;;;;;;;1.65;1.30;;;;;;;;;;5028175;28;20054;-77
2023/03/21 06:45:42;;;;;;;1.50;1.30;;;;;;;;;;5028309;28;20022;-77
2023/03/21 06:48:09;;;;;;;3.90;1.67;;;;;;;;;;5008994;28;20018;-76
2023/03/21 06:50:35;;;;;;;2.13;1.27;;;;;;;;;;5007551;28;20077;-77
2023/03/21 06:53:01;;;;;;;5.45;1.88;;;;;;;;;;4997773;28;20292;-76
2023/03/21 06:55:27;;;;;;;3.38;1.73;;;;;;;;;;5008341;28;20041;-77
2023/03/21 06:57:54;;;;;;;3.38;1.70;;;;;;;;;;5008170;28;20049;-77
2023/03/21 07:00:20;;;;;;;1.75;1.65;;;;;;;;;;5008486;28;20044;-77
2023/03/21 07:02:46;;;;;;;1.48;1.20;;;;;;;;;;5005712;28;20117;-77
2023/03/21 07:05:12;;;;;;;1.55;1.42;;;;;;;;;;5007855;28;20029;-77
2023/03/21 07:07:39;;;;;;;2.25;1.40;;;;;;;;;;5008003;28;20381;-77
2023/03/21 07:10:05;;;;;;;4.75;1.60;;;;;;;;;;5008127;28;20095;-77
2023/03/21 07:12:33;;;;;;;1.48;1.38;;;;;;;;;;5006894;28;20408;-77
2023/03/21 07:14:59;;;;;;;2.10;1.30;;;;;;;;;;5008059;28;20026;-77
2023/03/21 07:17:25;;;;;;;3.17;1.60;;;;;;;;;;5008306;28;20084;-77
2023/03/21 07:19:51;;;;;;;4.32;1.02;;;;;;;;;;5011289;28;20029;-77
2023/03/21 07:22:17;;;;;;;3.22;1.70;;;;;;;;;;5027582;28;20041;-77
2023/03/21 07:24:46;;;;;;;2.47;1.45;;;;;;;;;;5017888;28;20026;-76
2023/03/21 07:27:15;;;;;;;1.67;1.20;;;;;;;;;;5007707;28;20038;-76
2023/03/21 07:29:42;;;;;;;2.03;1.33;;;;;;;;;;5007821;28;20492;-76
2023/03/21 07:32:08;;;;;;;2.20;1.67;;;;;;;;;;5007964;28;20030;-76
2023/03/21 07:34:34;;;;;;;1.25;1.10;;;;;;;;;;5006147;28;20038;-76
2023/03/21 07:37:00;;;;;;;2.53;1.35;;;;;;;;;;5007914;28;20041;-76
2023/03/21 07:39:27;;;;;;;2.30;1.52;;;;;;;;;;5007923;28;20033;-76
2023/03/21 07:41:56;;;;;;;4.30;1.55;;;;;;;;;;5007541;28;20088;-76
2023/03/21 07:44:22;;;;;;;2.20;1.73;;;;;;;;;;5010410;28;20042;-76
2023/03/21 07:46:48;;;;;;;2.13;1.63;;;;;;;;;;5010836;28;20033;-76
2023/03/21 07:49:25;;;;;;;1.70;1.40;;;;;;;;;;5011685;28;20710;-78
2023/03/21 07:51:51;;;;;;;2.10;1.52;;;;;;;;;;4994147;28;20437;-76
2023/03/21 07:54:19;;;;;;;1.20;1.10;;;;;;;;;;5005461;28;20033;-76
2023/03/21 07:56:46;;;;;;;1.52;1.40;;;;;;;;;;5024833;28;20049;-76
2023/03/21 07:59:12;;;;;;;1.63;1.30;;;;;;;;;;5019574;28;20038;-76
2023/03/21 08:01:38;;;;;;;2.17;1.48;;;;;;;;;;5030733;28;20056;-76
2023/03/21 08:04:04;;;;;;;3.58;1.33;;;;;;;;;;5011577;28;20038;-76
2023/03/21 08:06:31;;;;;;;2.47;1.40;;;;;;;;;;5014890;28;20120;-76
2023/03/21 08:08:57;;;;;;;1.48;1.20;;;;;;;;;;5011666;28;20050;-76
2023/03/21 08:11:23;;;;;;;1.67;1.27;;;;;;;;;;5011217;28;20104;-77
2023/03/21 08:13:50;;;;;;;3.60;1.27;;;;;;;;;;5011421;28;20038;-76
2023/03/21 08:16:16;;;;;;;1.30;1.08;;;;;;;;;;5010756;28;20038;-76
2023/03/21 08:18:42;;;;;;;1.85;1.58;;;;;;;;;;5030944;28;20033;-76
2023/03/21 08:21:08;;;;;;;1.70;1.25;;;;;;;;;;5031046;28;20025;-77
2023/03/21 08:23:35;;;;;;;3.28;1.40;;;;;;;;;;5031286;28;20018;-76
2023/03/21 08:26:01;;;;;;;2.13;1.55;;;;;;;;;;5022612;28;20025;-76
2023/03/21 08:28:27;;;;;;;2.10;1.60;;;;;;;;;;5011246;28;20105;-76
2023/03/21 08:30:53;;;;;;;3.38;1.70;;;;;;;;;;5010647;28;20049;-76
2023/03/21 08:33:19;;;;;;;2.45;1.67;;;;;;;;;;5011115;28;20484;-76
2023/03/21 08:35:46;;;;;;;2.08;1.27;;;;;;;;;;5010658;28;20022;-77
2023/03/21 08:38:12;;;;;;;4.93;1.40;;;;;;;;;;5013727;28;20439;-77
2023/03/21 08:40:38;;;;;;;3.05;2.03;;;;;;;;;;5010880;28;20034;-77
2023/03/21 08:43:04;;;;;;;2.50;1.15;;;;;;;;;;5009621;28;20046;-76
2023/03/21 08:45:30;;;;;;;2.28;1.50;;;;;;;;;;5010877;28;20053;-76
2023/03/21 08:47:56;;;;;;;2.45;1.55;;;;;;;;;;5007839;28;20697;-76
2023/03/21 08:50:25;;;;;;;2.50;2.08;;;;;;;;;;5010950;28;20022;-77
2023/03/21 08:52:51;;;;;;;3.60;2.50;;;;;;;;;;5009859;28;20539;-77
2023/03/21 08:55:19;;;;;;;2.88;2.00;;;;;;;;;;5009532;28;20053;-76
2023/03/21 08:57:45;;;;;;;4.05;1.92;;;;;;;;;;5008993;28;20033;-77
2023/03/21 09:00:13;;;;;;;4.45;1.42;;;;;;;;;;5025556;28;20404;-76
2023/03/21 09:02:43;;;;;;;3.95;1.60;;;;;;;;;;5024226;28;20030;-76
2023/03/21 09:05:10;;;;;;;2.33;1.63;;;;;;;;;;5010275;28;20021;-76
2023/03/21 09:07:37;;;;;;;2.72;1.63;;;;;;;;;;5015112;28;20037;-77
2023/03/21 09:10:04;;;;;;;3.10;1.90;;;;;;;;;;5010029;28;20108;-77
2023/03/21 09:12:30;;;;;;;3.60;1.75;;;;;;;;;;5007168;28;20034;-77
2023/03/21 09:14:56;;;;;;;2.67;1.90;;;;;;;;;;5009725;28;20030;-76
2023/03/21 09:17:22;;;;;;;3.08;1.70;;;;;;;;;;5009674;28;20034;-76
2023/03/21 09:19:49;;;;;;;3.25;2.00;;;;;;;;;;5009155;28;20033;-77
2023/03/21 09:22:20;;;;;;;3.97;2.00;;;;;;;;;;5008636;28;20488;-78
2023/03/21 09:24:47;;;;;;;3.27;1.97;;;;;;;;;;5008872;28;20037;-78
2023/03/21 09:27:16;;;;;;;2.28;1.83;;;;;;;;;;5008236;28;20077;-75
2023/03/21 09:29:43;;;;;;;1.70;1.45;;;;;;;;;;5010028;28;20101;-75
2023/03/21 09:32:10;;;;;;;2.60;2.08;;;;;;;;;;5009045;28;20037;-77
2023/03/21 09:34:38;;;;;;;2.47;1.83;;;;;;;;;;5007286;28;20033;-77
2023/03/21 09:37:08;;;;;;;4.05;1.83;;;;;;;;;;5008951;28;20472;-77
2023/03/21 09:39:35;;;;;;;5.77;2.23;;;;;;;;;;5009664;28;20129;-74
2023/03/21 09:42:14;;;;;;;3.03;1.70;;;;;;;;;;5008628;28;20288;-77
2023/03/21 09:44:50;;;;;;;2.95;2.28;;;;;;;;;;5008665;28;20044;-77
2023/03/21 09:47:20;;;;;;;3.03;2.10;;;;;;;;;;5008645;28;20433;-78
2023/03/21 09:50:04;;;;;;;3.97;2.35;;;;;;;;;;5008640;28;20029;-78
2023/03/21 09:52:51;;;;;;;4.43;2.35;;;;;;;;;;5008066;28;20433;-77
2023/03/21 09:55:22;;;;;;;4.32;2.00;;;;;;;;;;5008248;28;20733;-77
2023/03/21 09:57:50;;;;;;;3.42;1.70;;;;;;;;;;5005692;28;20488;-77
2023/03/21 10:00:26;;;;;;;8.23;2.83;;;;;;;;;;4998112;28;20053;-78
2023/03/21 10:02:58;;;;;;;3.15;1.98;;;;;;;;;;5003817;28;20401;-77
2023/03/21 10:05:25;;;;;;;3.42;2.17;;;;;;;;;;5001047;28;20092;-77
2023/03/21 10:07:57;;;;;;;3.95;1.98;;;;;;;;;;5003237;28;20377;-77
2023/03/21 10:10:29;;;;;;;4.97;2.38;;;;;;;;;;5009151;28;20018;-77
2023/03/21 10:12:55;;;;;;;2.97;1.85;;;;;;;;;;5015774;28;20076;-77
2023/03/21 10:15:23;;;;;;;3.83;1.80;;;;;;;;;;5008195;28;20559;-78
2023/03/21 10:17:52;;;;;;;4.25;2.30;;;;;;;;;;5007777;28;20037;-76
2023/03/21 10:20:20;;;;;;;3.60;2.35;;;;;;;;;;5009636;28;20034;-78
2023/03/21 10:22:47;;;;;;;3.05;1.83;;;;;;;;;;5008151;28;20072;-77
2023/03/21 10:25:15;;;;;;;3.53;1.85;;;;;;;;;;5008199;28;20590;-77
2023/03/21 10:27:41;;;;;;;5.18;2.30;;;;;;;;;;5009117;28;20029;-77
2023/03/21 10:30:09;;;;;;;2.42;1.50;;;;;;;;;;5001091;28;20040;-76
2023/03/21 10:32:36;;;;;;;3.25;2.03;;;;;;;;;;5008685;28;20029;-77
2023/03/21 10:35:03;;;;;;;2.97;2.00;;;;;;;;;;5000132;28;20061;-77
2023/03/21 10:37:31;;;;;;;4.20;1.95;;;;;;;;;;5003455;28;20025;-77
2023/03/21 10:39:57;;;;;;;4.38;2.25;;;;;;;;;;5006341;28;20477;-76
2023/03/21 10:42:24;;;;;;;4.40;2.22;;;;;;;;;;5005924;28;20038;-76
2023/03/21 10:44:52;;;;;;;3.42;2.28;;;;;;;;;;5002259;28;20065;-77
2023/03/21 10:47:22;;;;;;;3.17;1.90;;;;;;;;;;5002080;28;20452;-77
2023/03/21 10:49:48;;;;;;;4.70;2.13;;;;;;;;;;5004518;28;20029;-77
2023/03/21 10:52:18;;;;;;;4.28;2.40;;;;;;;;;;5006354;28;20034;-77
2023/03/21 10:54:44;;;;;;;3.70;2.13;;;;;;;;;;5004446;28;20068;-77
2023/03/21 10:57:27;;;;;;;5.63;2.20;;;;;;;;;;5000242;28;20757;-76
2023/03/21 10:59:56;;;;;;;4.28;2.15;;;;;;;;;;5006284;28;20042;-77
2023/03/21 11:02:29;;;;;;;2.88;1.88;;;;;;;;;;5008237;28;20030;-77
2023/03/21 11:04:57;;;;;;;5.57;2.33;;;;;;;;;;5007175;28;20045;-77
2023/03/21 11:07:24;;;;;;;4.57;2.08;;;;;;;;;;4998118;28;20450;-76
2023/03/21 11:09:54;;;;;;;2.47;1.73;;;;;;;;;;5011969;28;20041;-76
2023/03/21 11:12:32;;;;;;;4.38;2.22;;;;;;;;;;5024951;28;20153;-77
2023/03/21 11:15:13;;;;;;;2.78;1.90;;;;;;;;;;5004735;28;21791;-77
2023/03/21 11:17:40;;;;;;;2.35;1.90;;;;;;;;;;5005491;28;20022;-76
2023/03/21 11:20:10;;;;;;;2.88;2.05;;;;;;;;;;5007281;28;20034;-76
2023/03/21 11:22:42;;;;;;;2.70;2.20;;;;;;;;;;5008026;28;20228;-76
2023/03/21 11:25:14;;;;;;;2.22;1.67;;;;;;;;;;5007369;28;20140;-75
2023/03/21 11:27:47;;;;;;;2.25;1.73;;;;;;;;;;5007577;28;20034;-75
2023/03/21 11:30:19;;;;;;;1.95;1.60;;;;;;;;;;5002685;28;20042;-75
2023/03/21 11:32:45;;;;;;;2.85;2.05;;;;;;;;;;5008952;28;20048;-75
2023/03/21 11:35:34;;;;;;;3.65;1.65;;;;;;;;;;5007886;28;20161;-76
2023/03/21 11:38:00;;;;;;;3.28;1.85;;;;;;;;;;4990961;28;20448;-76
2023/03/21 11:40:28;;;;;;;2.28;1.55;;;;;;;;;;5006792;28;20034;-76
2023/03/21 11:42:58;;;;;;;2.95;1.85;;;;;;;;;;5003825;28;20056;-76
2023/03/21 11:45:26;;;;;;;3.40;1.80;;;;;;;;;;5003622;28;20457;-75
2023/03/21 11:47:53;;;;;;;2.25;1.55;;;;;;;;;;5005499;28;20042;-76
2023/03/21 11:50:22;;;;;;;3.42;1.90;;;;;;;;;;5006843;28;20473;-76
2023/03/21 11:52:59;;;;;;;1.95;1.70;;;;;;;;;;5003407;28;20056;-75
2023/03/21 11:55:42;;;;;;;2.40;1.55;;;;;;;;;;5005312;28;20080;-75
2023/03/21 11:58:20;;;;;;;3.30;2.00;;;;;;;;;;4999504;28;20026;-75
2023/03/21 12:01:02;;;;;;;2.28;1.65;;;;;;;;;;5002106;28;20052;-75
2023/03/21 12:03:28;;;;;;;;;;;;;;;;;;5003221;28;20034;-75
2023/03/21 12:05:57;;;;;;;2.75;1.60;;;;;;;;;;5012380;28;19909;-76
2023/03/21 12:08:33;;;;;;;2.28;1.50;;;;;;;;;;5006570;28;20033;-72
2023/03/21 12:11:08;;;;;;;3.17;1.95;;;;;;;;;;5006296;28;20072;-73
2023/03/21 12:14:00;;;;;;;2.08;1.33;;;;;;;;;;4999598;28;20034;-72
2023/03/21 12:16:40;;;;;;;4.60;1.63;;;;;;;;;;4977069;28;20244;-73
2023/03/21 12:19:12;;;;;;;3.50;1.67;;;;;;;;;;5008005;28;20030;-73
2023/03/21 12:21:45;;;;;;;6.28;1.88;;;;;;;;;;5007594;28;20104;-73
2023/03/21 12:24:26;;;;;;;1.55;1.27;;;;;;;;;;5006848;28;20257;-72
2023/03/21 12:26:57;;;;;;;4.40;1.85;;;;;;;;;;4997184;28;20568;-72
2023/03/21 12:29:24;;;;;;;;;;;;;;;;;;5008350;28;20505;-73
2023/03/21 12:32:05;;;;;;;1.92;1.42;;;;;;;;;;5011121;28;19957;-72
2023/03/21 12:34:51;;;;;;;5.93;1.70;;;;;;;;;;5011173;28;20034;-73
2023/03/21 12:37:23;;;;;;;1.83;1.55;;;;;;;;;;5025031;28;20029;-74
2023/03/21 12:39:50;;;;;;;3.20;1.65;;;;;;;;;;4998907;28;20405;-72
2023/03/21 12:42:29;;;;;;;2.15;1.10;;;;;;;;;;5008859;28;20026;-73
2023/03/21 12:45:01;;;;;;;2.28;1.65;;;;;;;;;;5008780;28;20046;-73
2023/03/21 12:47:29;;;;;;;2.65;1.73;;;;;;;;;;5010708;28;20034;-73
2023/03/21 12:50:10;;;;;;;2.22;1.60;;;;;;;;;;5009393;28;20030;-73
2023/03/21 12:52:41;;;;;;;1.80;1.42;;;;;;;;;;5009944;28;20026;-73
2023/03/21 12:55:14;;;;;;;3.95;1.42;;;;;;;;;;5011034;28;20044;-73
2023/03/21 12:57:51;;;;;;;1.83;1.60;;;;;;;;;;5008584;28;20034;-73
2023/03/21 13:00:26;;;;;;;1.70;1.30;;;;;;;;;;5008180;28;20400;-73
2023/03/21 13:02:58;;;;;;;4.00;1.88;;;;;;;;;;5004122;28;20038;-78
2023/03/21 13:05:30;;;;;;;2.10;1.40;;;;;;;;;;5002571;28;20025;-78
2023/03/21 13:08:00;;;;;;;1.73;1.48;;;;;;;;;;5011686;28;20018;-78
2023/03/21 13:10:26;;;;;;;2.22;1.50;;;;;;;;;;5017400;28;20014;-77
2023/03/21 13:13:08;;;;;;;1.75;1.23;;;;;;;;;;5010690;28;20037;-77
2023/03/21 13:15:51;;;;;;;1.30;1.08;;;;;;;;;;5006748;28;20068;-77
2023/03/21 13:18:27;;;;;;;1.45;1.30;;;;;;;;;;5004902;28;20076;-75
2023/03/21 13:20:56;;;;;;;1.65;1.27;;;;;;;;;;5010085;28;20128;-78
2023/03/21 13:23:35;;;;;;;1.70;1.38;;;;;;;;;;5009526;28;20041;-75
2023/03/21 13:26:02;;;;;;;1.75;1.35;;;;;;;;;;5005072;28;20064;-83
2023/03/21 13:28:33;;;;;;;3.85;1.45;;;;;;;;;;5005337;28;20464;-78
2023/03/21 13:31:19;;;;;;;1.42;1.20;;;;;;;;;;5008225;28;20118;-81
2023/03/21 13:33:49;;;;;;;2.17;1.25;;;;;;;;;;5001442;28;20060;-79
2023/03/21 13:36:18;;;;;;;1.58;1.35;;;;;;;;;;5004957;28;20048;-79
2023/03/21 13:38:49;;;;;;;2.10;1.30;;;;;;;;;;5002846;28;20477;-80
2023/03/21 13:41:15;;;;;;;;;;;;;;;;;;4999804;28;20014;-76
2023/03/21 13:43:50;;;;;;;2.55;1.30;;;;;;;;;;5005214;28;20276;-79
2023/03/21 13:46:25;;;;;;;1.42;1.30;;;;;;;;;;5013495;28;20378;-82
2023/03/21 13:48:57;;;;;;;2.75;1.52;;;;;;;;;;5006942;28;20038;-81
2023/03/21 13:51:36;;;;;;;2.67;1.88;;;;;;;;;;5007382;28;20064;-77
2023/03/21 13:54:03;;;;;;;1.55;1.20;;;;;;;;;;5003166;28;20112;-77
2023/03/21 13:56:30;;;;;;;1.13;1.02;;;;;;;;;;5002040;28;20452;-82
2023/03/21 13:59:00;;;;;;;2.13;1.17;;;;;;;;;;5007260;28;20034;-78
2023/03/21 14:01:36;;;;;;;6.65;1.77;;;;;;;;;;5003042;28;20022;-77
2023/03/21 14:04:06;;;;;;;1.70;1.38;;;;;;;;;;5016387;28;20041;-73
2023/03/21 14:06:35;;;;;;;1.25;1.00;;;;;;;;;;5009126;28;20033;-79
2023/03/21 14:09:02;;;;;;;1.75;1.38;;;;;;;;;;5007353;28;20022;-81
2023/03/21 14:11:29;;;;;;;1.88;1.23;;;;;;;;;;5001158;28;20062;-81
2023/03/21 14:13:57;;;;;;;2.63;1.52;;;;;;;;;;5007486;28;20041;-79
2023/03/21 14:16:27;;;;;;;1.25;1.10;;;;;;;;;;5003160;28;21329;-75
2023/03/21 14:18:59;;;;;;;2.25;1.42;;;;;;;;;;5007477;28;20047;-79
2023/03/21 14:21:28;;;;;;;1.45;1.27;;;;;;;;;;5003707;28;20105;-78
2023/03/21 14:24:05;;;;;;;1.55;1.10;;;;;;;;;;4998635;28;20516;-79
2023/03/21 14:26:36;;;;;;;1.25;1.15;;;;;;;;;;5004400;28;20034;-78
2023/03/21 14:29:04;;;;;;;4.13;1.00;;;;;;;;;;5007303;28;20057;-79
2023/03/21 14:31:31;;;;;;;1.20;1.08;;;;;;;;;;4996342;28;20069;-78
2023/03/21 14:33:58;;;;;;;2.55;1.25;;;;;;;;;;5004605;28;20481;-82
2023/03/21 14:36:26;;;;;;;1.13;1.00;;;;;;;;;;5003241;28;20061;-79
2023/03/21 14:38:57;;;;;;;2.95;1.13;;;;;;;;;;5007751;28;20440;-78
2023/03/21 14:41:27;;;;;;;2.80;1.25;;;;;;;;;;5006694;28;20025;-84
2023/03/21 14:44:04;;;;;;;1.42;1.13;;;;;;;;;;5005973;28;20065;-81
2023/03/21 14:46:30;;;;;;;2.78;1.30;;;;;;;;;;4999771;28;20029;-80
2023/03/21 14:49:09;;;;;;;1.58;1.10;;;;;;;;;;5002667;28;20053;-83
2023/03/21 14:51:35;;;;;;;1.45;1.10;;;;;;;;;;5004772;28;20037;-86
2023/03/21 14:54:01;;;;;;;1.80;1.30;;;;;;;;;;5003551;28;20030;-81
2023/03/21 14:56:27;;;;;;;2.95;1.38;;;;;;;;;;4997748;28;20392;-80
2023/03/21 14:58:54;;;;;;;1.83;1.38;;;;;;;;;;5002174;28;20433;-81